KDLS

Columbia Gorge Regional / The Dalles Municipal Airport

The Dalles, Oregon, USA
METAR KDLS 211353Z AUTO VRB05KT 10SM CLR 14/08 A2998 RMK AO2 SLP152 T01440078
Observed Flight Rules
May-21 @ 13:53 UTC (an hour ago) Visual Flight Rules
Wind Visibility Clouds
Variable at 5 knots 10 miles
  • Clear skies
Temperatures Readings
Current 14°C / 57°F
Dewpoint 8°C / 46°F
Humidity 67%
Altimeter 29.98" Hg
Pressure 1015.2 hPa
Elevation 71
METAR KDLS 211353Z AUTO VRB05KT 10SM CLR 14/08 A2998 RMK AO2 SLP152 T01440078
Observed Flight Rules
May-21 @ 13:53 UTC
(an hour ago)
VFR
Wind Visibility
Variable at 5 knots 10 miles
Clouds
  • Clear skies
Temperature Dewpoint
14°C / 57°F 8°C / 46°F
Humidity Altimeter Pressure
67% 29.98" Hg 1015.2 hPa